Weather reports worldwide

Advertisment
Siguenza, Spain (8150): temperature & dewpoint: 13.03.2019 10:00:00 - 19.03.2019 10:00:00 (CET)Siguenza, Spain (8150): wind speed & gusts: 13.03.2019 10:00:00 - 19.03.2019 10:00:00 (CET)Siguenza, Spain (8150): wind direction: 13.03.2019 10:00:00 - 19.03.2019 10:00:00 (CET)Siguenza, Spain (8150): visibility: 13.03.2019 10:00:00 - 19.03.2019 10:00:00 (CET)Siguenza, Spain (8150): sunshine duration: 13.03.2019 10:00:00 - 19.03.2019 10:00:00 (CET)Siguenza, Spain (8150): precipitation: 13.03.2019 10:00:00 - 19.03.2019 10:00:00 (CET)
Date & Time tt [°C] td [°C] ff [km/h] ff [kn] fx [km/h] fx [kn] dd vv [km] sd [min] rr [mm]
19.03.2019 10:00:00 - - - - - - - - - -
19.03.2019 09:00:00 5,4 -0,6 14 8 35 19 NNW 20 58 0,0
19.03.2019 08:00:00 3,2 -1,2 18 10 35 19 NNW 20 12 0,0
19.03.2019 07:00:00 0,7 -2,9 3 2 11 6 SW 20 0 -
19.03.2019 06:00:00 2,0 -1,6 0 0 4 2 N 20 0 0,0
19.03.2019 05:00:00 2,0 -1,8 0 0 5 3 N 20 0 0,0
19.03.2019 04:00:00 2,0 -1,9 2 1 3 2 S 20 0 0,0
19.03.2019 03:00:00 1,8 -2,5 2 1 6 3 SW 20 0 0,0
19.03.2019 02:00:00 1,2 -3,1 2 1 11 6 NE 20 0 0,0
19.03.2019 01:00:00 1,0 -3,5 3 2 13 7 NE 20 0 -
19.03.2019 00:00:00 1,2 -3,1 6 3 12 7 NE 20 0 0,0
18.03.2019 23:00:00 1,4 -3,6 6 3 14 8 NNE 20 0 0,0
18.03.2019 22:00:00 2,7 -3,6 7 4 14 8 NNE 20 0 0,0
18.03.2019 21:00:00 4,4 -3,6 8 4 20 11 NE 20 0 0,0
18.03.2019 20:00:00 5,6 -4,2 8 4 26 14 NE 20 0 0,0
18.03.2019 19:00:00 7,4 -5,3 13 7 31 17 NNE 20 17 -
18.03.2019 18:00:00 9,4 -6,4 12 6 29 16 NE 20 41 0,0
18.03.2019 17:00:00 10,8 -7,9 12 6 32 18 NE 20 59 0,0
18.03.2019 16:00:00 11,6 -8,2 13 7 35 19 NE 20 56 0,0
18.03.2019 15:00:00 11,2 -8,0 13 7 34 18 NE 20 60 0,0
18.03.2019 14:00:00 10,8 -7,4 14 7 37 20 NNE 20 60 0,0
18.03.2019 13:00:00 10,1 -5,0 15 8 41 22 NNE 20 60 -
18.03.2019 12:00:00 8,7 -4,1 13 7 37 20 NNE 20 59 0,0
18.03.2019 11:00:00 6,9 -3,0 17 9 37 20 NNE 20 43 0,0
18.03.2019 10:00:00 5,3 -2,0 13 7 32 18 NE 20 39 0,0
18.03.2019 09:00:00 3,0 -2,1 10 6 23 13 NNE 20 60 0,0
18.03.2019 08:00:00 -1,7 -3,9 3 1 10 5 ENE 20 20 0,0
18.03.2019 07:00:00 -3,1 -5,7 2 1 8 5 N 20 0 -
18.03.2019 06:00:00 -1,4 -5,2 4 2 16 9 NNE 20 0 0,0
18.03.2019 05:00:00 -1,4 -5,2 6 3 13 7 NE 20 0 0,0
18.03.2019 04:00:00 0,1 -4,1 5 3 23 12 NNE 20 0 0,0
18.03.2019 03:00:00 1,6 -3,3 12 6 26 14 ENE 20 0 0,0
18.03.2019 02:00:00 2,2 -2,9 14 7 29 16 ENE 20 0 0,0
18.03.2019 01:00:00 2,7 -1,3 13 7 30 16 NE 20 0 -
18.03.2019 00:00:00 3,3 -0,3 16 9 35 19 NE 20 0 0,0
17.03.2019 23:00:00 3,7 -0,1 16 9 29 16 ENE 20 0 0,0
17.03.2019 22:00:00 4,2 0,7 12 6 32 17 NE 20 0 0,0
17.03.2019 21:00:00 5,5 0,3 15 8 31 17 NE 20 0 0,0
17.03.2019 20:00:00 6,9 1,6 14 8 27 15 NE 20 0 0,0
17.03.2019 19:00:00 8,9 2,5 11 6 35 19 NE 20 0 -
17.03.2019 18:00:00 12,5 -1,0 14 8 37 20 NNW 20 42 0,0
17.03.2019 17:00:00 15,1 1,3 13 7 35 19 NW 20 58 0,0
17.03.2019 16:00:00 15,5 1,3 17 9 41 22 NW 20 56 0,0
17.03.2019 15:00:00 16,1 -0,1 18 10 41 22 NW 20 60 0,0
17.03.2019 14:00:00 16,1 -1,4 18 10 40 21 NW 17 60 0,0
17.03.2019 13:00:00 18,7 -3,4 9 5 23 12 WSW 20 60 -
17.03.2019 12:00:00 17,1 -2,0 8 4 29 16 WNW 20 58 0,0
17.03.2019 11:00:00 15,4 -4,0 7 4 22 12 WNW 20 56 0,0
17.03.2019 10:00:00 11,8 0,3 7 4 11 6 S 20 49 0,0
17.03.2019 09:00:00 5,3 -0,7 3 2 6 3 N 20 60 0,0
17.03.2019 08:00:00 -0,2 -3,2 6 4 10 5 NNE 20 18 0,0
17.03.2019 07:00:00 -1,9 -3,9 6 3 10 5 N 20 0 -
17.03.2019 06:00:00 -2,4 -4,7 4 2 9 5 NE 20 0 0,0
17.03.2019 05:00:00 -2,0 -5,0 6 3 9 5 NNE 20 0 0,0
17.03.2019 04:00:00 -1,3 -4,3 5 3 10 5 NE 20 0 0,0
17.03.2019 03:00:00 -0,9 -4,2 4 2 9 5 NE 20 0 0,0
17.03.2019 02:00:00 -0,3 -4,3 2 1 9 5 NNE 20 0 0,0
17.03.2019 01:00:00 0,5 -3,9 2 1 6 3 NE 20 0 -
17.03.2019 00:00:00 1,9 -3,4 4 2 8 5 NE 20 0 0,0
16.03.2019 23:00:00 3,3 -3,0 5 3 7 4 NNE 20 0 0,0
16.03.2019 22:00:00 4,7 -3,5 3 2 6 4 NNE 20 0 0,0
16.03.2019 21:00:00 7,5 -3,6 1 1 6 3 NNE 20 0 0,0
16.03.2019 20:00:00 11,5 -3,8 1 1 4 2 NE 20 0 0,0
16.03.2019 19:00:00 17,1 -3,6 3 2 29 16 SSW 20 22 -
16.03.2019 18:00:00 20,4 -4,7 10 5 31 17 WSW 20 60 0,0
16.03.2019 17:00:00 21,9 -4,2 11 6 36 19 SW 20 60 0,0
16.03.2019 16:00:00 22,6 -3,6 14 7 36 20 SW 20 49 0,0
16.03.2019 15:00:00 22,7 -4,3 16 9 38 20 SW 20 60 0,0
16.03.2019 14:00:00 22,5 -4,5 16 9 39 21 SW 20 60 0,0
16.03.2019 13:00:00 21,9 -3,4 16 9 35 19 SW 20 60 -
16.03.2019 12:00:00 21,0 -2,8 15 8 32 17 SSW 20 60 0,0
16.03.2019 11:00:00 18,6 -3,5 11 6 21 11 SW 20 57 0,0
16.03.2019 10:00:00 10,9 -1,1 1 1 6 3 ESE 20 53 0,0
16.03.2019 09:00:00 4,1 -3,2 3 2 8 4 ENE 20 60 0,0
16.03.2019 08:00:00 -1,5 -4,6 5 3 9 5 NNE 20 14 0,0
16.03.2019 07:00:00 -3,0 -5,6 1 1 8 5 NNW 20 0 -
16.03.2019 06:00:00 -2,7 -5,8 5 3 9 5 NNE 20 0 0,0
16.03.2019 05:00:00 -2,0 -5,5 4 2 8 4 NE 20 0 0,0
16.03.2019 04:00:00 -1,4 -4,9 3 2 8 5 ENE 20 0 0,0
16.03.2019 03:00:00 -0,9 -4,7 3 2 10 5 ENE 20 0 0,0
16.03.2019 02:00:00 -0,4 -4,8 5 3 7 4 NE 20 0 0,0
16.03.2019 01:00:00 0,6 -4,8 1 1 9 5 N 20 0 -
16.03.2019 00:00:00 1,8 -4,7 3 1 9 5 ENE 20 0 0,0
15.03.2019 23:00:00 3,1 -4,1 2 1 11 6 N 20 0 0,0
15.03.2019 22:00:00 4,6 -3,9 4 2 9 5 NE 20 0 0,0
15.03.2019 21:00:00 6,7 -3,5 3 1 8 4 NE 20 0 0,0
15.03.2019 20:00:00 10,3 -2,0 3 2 8 4 NE 20 0 0,0
15.03.2019 19:00:00 16,1 -1,4 2 1 16 9 SSE 20 21 -
15.03.2019 18:00:00 21,1 -2,7 10 5 21 12 SW 20 60 0,0
15.03.2019 17:00:00 22,7 -3,5 11 6 24 13 SSW 20 60 0,0
15.03.2019 16:00:00 23,8 -4,3 6 3 22 12 WSW 20 54 0,0
15.03.2019 15:00:00 22,4 -4,6 9 5 21 11 NNW 20 60 0,0
15.03.2019 14:00:00 22,5 -2,9 6 4 20 11 W 20 60 0,0
15.03.2019 13:00:00 20,4 -3,3 12 7 21 11 NNW 20 60 -
15.03.2019 12:00:00 19,9 -3,7 7 4 18 10 WSW 20 56 0,0
15.03.2019 11:00:00 16,3 -3,7 5 3 14 8 SSE 20 56 0,0
15.03.2019 10:00:00 11,2 -2,2 4 2 9 5 S 20 51 0,0
15.03.2019 09:00:00 4,5 -2,3 3 2 7 4 S 20 60 0,0
15.03.2019 08:00:00 -1,1 -4,4 1 1 6 4 SSE 20 12 0,0
15.03.2019 07:00:00 -2,5 -5,3 1 1 7 4 NE 20 0 -
15.03.2019 06:00:00 -1,3 -5,0 4 2 8 5 NNE 20 0 0,0
15.03.2019 05:00:00 -0,4 -4,8 3 2 10 5 ENE 20 0 0,0
15.03.2019 04:00:00 0,3 -4,5 4 2 8 4 N 20 0 0,0
15.03.2019 03:00:00 -1,0 -4,5 3 2 9 5 NE 20 0 0,0
15.03.2019 02:00:00 -0,9 -4,6 5 3 8 5 NE 20 0 0,0
15.03.2019 01:00:00 0,1 -4,3 - - - - - 20 - -
15.03.2019 00:00:00 - - - - - - - - - -
14.03.2019 23:00:00 - - - - - - - - - -
14.03.2019 22:00:00 - - - - - - - - - -
14.03.2019 21:00:00 - - - - - - - - - -
14.03.2019 20:00:00 - - - - - - - - - -
14.03.2019 19:00:00 - - - - - - - - - -
14.03.2019 18:00:00 14,5 -7,5 12 7 23 13 NW 20 60 0,0
14.03.2019 17:00:00 15,5 -8,0 11 6 29 15 NW 20 60 0,0
14.03.2019 16:00:00 15,3 -6,2 13 7 28 15 NNW 20 55 0,0
14.03.2019 15:00:00 15,2 -5,2 9 5 27 14 NW 20 60 0,0
14.03.2019 14:00:00 14,3 -5,4 10 5 30 16 NW 20 60 0,0
14.03.2019 13:00:00 12,4 -4,2 10 5 29 16 NW 20 60 -
14.03.2019 12:00:00 10,6 -3,4 16 8 39 21 N 20 57 0,0
14.03.2019 11:00:00 8,6 -3,2 14 8 32 18 N 20 55 0,0
14.03.2019 10:00:00 6,2 -1,4 8 4 22 12 N 20 51 0,0
14.03.2019 09:00:00 4,1 -1,1 12 6 41 22 NNW 20 60 0,0
14.03.2019 08:00:00 0,4 -1,7 8 4 21 11 N 20 11 0,0
14.03.2019 07:00:00 -4,2 -5,6 4 2 9 5 NNE 20 0 -
14.03.2019 06:00:00 -5,0 -6,4 2 1 7 4 SSW 20 0 0,0
14.03.2019 05:00:00 -4,7 -6,2 2 1 8 4 NNW 20 0 0,0
14.03.2019 04:00:00 -3,9 -5,9 3 2 9 5 NE 20 0 0,0
14.03.2019 03:00:00 -3,3 -5,8 3 2 7 4 NE 20 0 0,0
14.03.2019 02:00:00 -2,9 -5,5 4 2 8 4 SW 20 0 0,0
14.03.2019 01:00:00 -1,6 -4,9 3 2 12 6 NE 20 0 -
14.03.2019 00:00:00 -0,6 -4,6 4 2 10 5 ESE 20 0 0,0
13.03.2019 23:00:00 0,3 -4,5 1 1 7 4 SSE 20 0 0,0
13.03.2019 22:00:00 2,7 -4,5 2 1 16 9 NNE 20 0 0,0
13.03.2019 21:00:00 4,0 -4,4 5 3 12 7 NNE 20 0 0,0
13.03.2019 20:00:00 5,0 -4,3 4 2 15 8 N 20 0 0,0
13.03.2019 19:00:00 7,0 -4,7 6 4 30 16 N 20 14 -
13.03.2019 18:00:00 9,2 -4,3 9 5 37 20 NNW 20 60 0,0
13.03.2019 17:00:00 10,0 -2,9 16 8 41 22 NW 20 55 0,0
13.03.2019 16:00:00 10,9 -2,8 13 7 38 21 NW 20 51 0,0
13.03.2019 15:00:00 - - - - - - - - - -
13.03.2019 14:00:00 12,0 -4,1 15 8 39 21 NW 20 60 0,0
13.03.2019 13:00:00 10,8 -4,8 16 9 38 21 NNW 20 55 -
13.03.2019 12:00:00 9,5 -2,7 14 7 33 18 NNW 20 58 0,0
13.03.2019 11:00:00 7,6 -2,7 11 6 29 15 NW 20 40 0,0
13.03.2019 10:00:00 5,3 -0,1 15 8 29 15 NNW 20 3 0,0

tt = temperature
td = dewpoint
ff = wind speed
fx = gusts
dd = wind direction
vv = visibility
sd = sunshine duration
rr = precipitation

Next stations